El'ton, Russia
Current Conditions -  °F | °C
As of 8:30 PM on Saturday 20 Dec 2014 (Local Time) from URWW Reporting Station
Overcast Overcast  
Wind Chill: 33°   Ceiling: 10000
Heat Index: 41°   Visibility: 6mi
Dew Point: 39°   Wind: 16mph
Humidity: 93%   Direction: 220°SW
Pressure: 29.88"   Gusts: 22mph
Location:  49.12°N, 46.56°E
Report Text: URWW 201730Z 22007G10MPS 9999 SCT015 OVC100 05/04 Q1012 NOSIGRMK 29290054
Loading
Personal Weather Stations






























Interactive Weather Map New forecast layout! Learn more

10-Day Weather Forecast

Advertisements
Track Severe Weather on mobile